sensor_id;sensor_type;location;lat;lon;timestamp;P1;durP1;ratioP1;P2;durP2;ratioP2
38879;SDS011;25887;30.194;-97.880;2023-11-21T00:01:05;2.33;;;0.57;;
38879;SDS011;25887;30.194;-97.880;2023-11-21T00:03:34;2.10;;;0.70;;
38879;SDS011;25887;30.194;-97.880;2023-11-21T00:06:01;1.80;;;0.50;;
38879;SDS011;25887;30.194;-97.880;2023-11-21T00:08:29;0.60;;;0.45;;
38879;SDS011;25887;30.194;-97.880;2023-11-21T00:10:56;1.75;;;0.55;;
38879;SDS011;25887;30.194;-97.880;2023-11-21T00:13:25;1.38;;;0.63;;
38879;SDS011;25887;30.194;-97.880;2023-11-21T00:15:52;0.75;;;0.63;;
38879;SDS011;25887;30.194;-97.880;2023-11-21T00:18:18;1.27;;;0.73;;
38879;SDS011;25887;30.194;-97.880;2023-11-21T00:20:46;0.88;;;0.68;;
38879;SDS011;25887;30.194;-97.880;2023-11-21T00:23:16;0.47;;;0.38;;
38879;SDS011;25887;30.194;-97.880;2023-11-21T00:25:43;1.38;;;0.75;;
38879;SDS011;25887;30.194;-97.880;2023-11-21T00:28:10;3.88;;;0.57;;
38879;SDS011;25887;30.194;-97.880;2023-11-21T00:30:37;2.13;;;0.85;;
38879;SDS011;25887;30.194;-97.880;2023-11-21T00:33:06;0.82;;;0.65;;
38879;SDS011;25887;30.194;-97.880;2023-11-21T00:35:34;0.82;;;0.47;;
38879;SDS011;25887;30.194;-97.880;2023-11-21T00:38:01;1.50;;;0.77;;
38879;SDS011;25887;30.194;-97.880;2023-11-21T00:40:28;1.27;;;0.73;;
38879;SDS011;25887;30.194;-97.880;2023-11-21T00:42:55;2.03;;;0.70;;
38879;SDS011;25887;30.194;-97.880;2023-11-21T00:45:26;1.30;;;0.68;;
38879;SDS011;25887;30.194;-97.880;2023-11-21T00:47:53;0.50;;;0.47;;
38879;SDS011;25887;30.194;-97.880;2023-11-21T00:50:19;0.75;;;0.47;;
38879;SDS011;25887;30.194;-97.880;2023-11-21T00:52:49;1.70;;;0.43;;
38879;SDS011;25887;30.194;-97.880;2023-11-21T00:55:19;8.45;;;0.80;;
38879;SDS011;25887;30.194;-97.880;2023-11-21T00:57:47;0.68;;;0.52;;
38879;SDS011;25887;30.194;-97.880;2023-11-21T01:00:14;0.45;;;0.30;;
38879;SDS011;25887;30.194;-97.880;2023-11-21T01:02:44;0.32;;;0.30;;
38879;SDS011;25887;30.194;-97.880;2023-11-21T01:05:15;0.38;;;0.30;;
38879;SDS011;25887;30.194;-97.880;2023-11-21T01:07:41;4.03;;;0.50;;
38879;SDS011;25887;30.194;-97.880;2023-11-21T01:10:09;0.60;;;0.50;;
38879;SDS011;25887;30.194;-97.880;2023-11-21T01:12:36;2.15;;;0.90;;
38879;SDS011;25887;30.194;-97.880;2023-11-21T01:15:06;1.05;;;0.75;;
38879;SDS011;25887;30.194;-97.880;2023-11-21T01:17:36;1.63;;;0.88;;
38879;SDS011;25887;30.194;-97.880;2023-11-21T01:20:03;2.70;;;0.90;;
38879;SDS011;25887;30.194;-97.880;2023-11-21T01:22:38;1.50;;;0.98;;
38879;SDS011;25887;30.194;-97.880;2023-11-21T01:25:05;1.50;;;0.90;;
38879;SDS011;25887;30.194;-97.880;2023-11-21T01:27:36;1.67;;;1.00;;
38879;SDS011;25887;30.194;-97.880;2023-11-21T01:32:50;1.33;;;0.98;;
38879;SDS011;25887;30.194;-97.880;2023-11-21T01:38:39;1.93;;;1.07;;
38879;SDS011;25887;30.194;-97.880;2023-11-21T01:41:07;1.27;;;0.85;;
38879;SDS011;25887;30.194;-97.880;2023-11-21T01:43:36;1.00;;;0.90;;
38879;SDS011;25887;30.194;-97.880;2023-11-21T01:46:04;4.88;;;0.95;;
38879;SDS011;25887;30.194;-97.880;2023-11-21T01:48:31;3.15;;;1.00;;
38879;SDS011;25887;30.194;-97.880;2023-11-21T01:50:59;2.72;;;1.13;;
38879;SDS011;25887;30.194;-97.880;2023-11-21T01:53:30;4.07;;;1.40;;
38879;SDS011;25887;30.194;-97.880;2023-11-21T01:55:56;1.35;;;0.98;;
38879;SDS011;25887;30.194;-97.880;2023-11-21T01:58:23;2.15;;;1.60;;
38879;SDS011;25887;30.194;-97.880;2023-11-21T02:00:50;2.60;;;0.95;;
38879;SDS011;25887;30.194;-97.880;2023-11-21T02:03:18;0.98;;;0.85;;
38879;SDS011;25887;30.194;-97.880;2023-11-21T02:05:45;2.22;;;1.10;;
38879;SDS011;25887;30.194;-97.880;2023-11-21T02:08:11;1.50;;;1.08;;
38879;SDS011;25887;30.194;-97.880;2023-11-21T02:10:38;2.72;;;1.30;;
38879;SDS011;25887;30.194;-97.880;2023-11-21T02:13:04;1.00;;;0.88;;
38879;SDS011;25887;30.194;-97.880;2023-11-21T02:15:31;2.40;;;1.30;;
38879;SDS011;25887;30.194;-97.880;2023-11-21T02:17:57;1.77;;;1.13;;
38879;SDS011;25887;30.194;-97.880;2023-11-21T02:20:24;0.80;;;0.80;;
38879;SDS011;25887;30.194;-97.880;2023-11-21T02:22:52;1.58;;;1.30;;
38879;SDS011;25887;30.194;-97.880;2023-11-21T02:25:32;2.45;;;1.30;;
38879;SDS011;25887;30.194;-97.880;2023-11-21T02:28:00;3.10;;;1.88;;
38879;SDS011;25887;30.194;-97.880;2023-11-21T02:30:27;1.20;;;1.10;;
38879;SDS011;25887;30.194;-97.880;2023-11-21T02:32:57;2.92;;;1.42;;
38879;SDS011;25887;30.194;-97.880;2023-11-21T02:35:23;2.75;;;1.33;;
38879;SDS011;25887;30.194;-97.880;2023-11-21T02:37:51;2.88;;;1.55;;
38879;SDS011;25887;30.194;-97.880;2023-11-21T02:40:18;1.88;;;1.20;;
38879;SDS011;25887;30.194;-97.880;2023-11-21T02:42:48;2.03;;;1.25;;
38879;SDS011;25887;30.194;-97.880;2023-11-21T02:45:19;2.97;;;1.42;;
38879;SDS011;25887;30.194;-97.880;2023-11-21T02:47:46;1.35;;;0.90;;
38879;SDS011;25887;30.194;-97.880;2023-11-21T02:50:14;2.78;;;1.40;;
38879;SDS011;25887;30.194;-97.880;2023-11-21T02:52:40;2.08;;;1.25;;
38879;SDS011;25887;30.194;-97.880;2023-11-21T02:55:07;3.92;;;1.23;;
38879;SDS011;25887;30.194;-97.880;2023-11-21T02:57:33;2.33;;;1.20;;
38879;SDS011;25887;30.194;-97.880;2023-11-21T03:00:01;2.58;;;1.45;;
38879;SDS011;25887;30.194;-97.880;2023-11-21T03:02:28;1.48;;;1.20;;
38879;SDS011;25887;30.194;-97.880;2023-11-21T03:04:54;1.88;;;1.30;;
38879;SDS011;25887;30.194;-97.880;2023-11-21T03:07:21;3.13;;;1.27;;
38879;SDS011;25887;30.194;-97.880;2023-11-21T03:09:47;2.17;;;1.08;;
38879;SDS011;25887;30.194;-97.880;2023-11-21T03:12:13;0.80;;;0.80;;
38879;SDS011;25887;30.194;-97.880;2023-11-21T03:14:39;1.50;;;1.00;;
38879;SDS011;25887;30.194;-97.880;2023-11-21T03:17:06;1.88;;;1.05;;
38879;SDS011;25887;30.194;-97.880;2023-11-21T03:19:32;1.48;;;1.05;;
38879;SDS011;25887;30.194;-97.880;2023-11-21T03:21:58;1.55;;;1.08;;
38879;SDS011;25887;30.194;-97.880;2023-11-21T03:24:25;1.30;;;0.93;;
38879;SDS011;25887;30.194;-97.880;2023-11-21T03:26:51;3.15;;;1.10;;
38879;SDS011;25887;30.194;-97.880;2023-11-21T03:29:18;1.20;;;0.90;;
38879;SDS011;25887;30.194;-97.880;2023-11-21T03:31:44;1.38;;;0.90;;
38879;SDS011;25887;30.194;-97.880;2023-11-21T03:34:14;3.42;;;0.95;;
38879;SDS011;25887;30.194;-97.880;2023-11-21T03:36:42;1.60;;;0.90;;
38879;SDS011;25887;30.194;-97.880;2023-11-21T03:39:08;1.42;;;1.00;;
38879;SDS011;25887;30.194;-97.880;2023-11-21T03:41:35;2.47;;;0.90;;
38879;SDS011;25887;30.194;-97.880;2023-11-21T03:44:01;2.83;;;0.90;;
38879;SDS011;25887;30.194;-97.880;2023-11-21T03:46:27;0.98;;;0.90;;
38879;SDS011;25887;30.194;-97.880;2023-11-21T03:48:53;1.33;;;1.00;;
38879;SDS011;25887;30.194;-97.880;2023-11-21T03:51:20;2.83;;;0.90;;
38879;SDS011;25887;30.194;-97.880;2023-11-21T03:53:47;1.70;;;1.08;;
38879;SDS011;25887;30.194;-97.880;2023-11-21T03:56:13;1.35;;;0.80;;
38879;SDS011;25887;30.194;-97.880;2023-11-21T03:58:40;1.27;;;0.88;;
38879;SDS011;25887;30.194;-97.880;2023-11-21T04:01:06;1.48;;;0.98;;
38879;SDS011;25887;30.194;-97.880;2023-11-21T04:03:32;1.33;;;0.90;;
38879;SDS011;25887;30.194;-97.880;2023-11-21T04:05:58;2.92;;;0.85;;
38879;SDS011;25887;30.194;-97.880;2023-11-21T04:08:26;0.98;;;0.88;;
38879;SDS011;25887;30.194;-97.880;2023-11-21T04:10:52;1.08;;;0.90;;
38879;SDS011;25887;30.194;-97.880;2023-11-21T04:13:19;1.00;;;0.90;;
38879;SDS011;25887;30.194;-97.880;2023-11-21T04:15:45;0.88;;;0.70;;
38879;SDS011;25887;30.194;-97.880;2023-11-21T04:18:11;1.58;;;0.88;;
38879;SDS011;25887;30.194;-97.880;2023-11-21T04:20:37;1.27;;;0.80;;
38879;SDS011;25887;30.194;-97.880;2023-11-21T04:23:03;1.45;;;0.80;;
38879;SDS011;25887;30.194;-97.880;2023-11-21T04:25:30;1.08;;;1.00;;
38879;SDS011;25887;30.194;-97.880;2023-11-21T04:27:56;1.77;;;0.90;;
38879;SDS011;25887;30.194;-97.880;2023-11-21T04:30:22;1.45;;;0.90;;
38879;SDS011;25887;30.194;-97.880;2023-11-21T04:32:48;1.73;;;0.90;;
38879;SDS011;25887;30.194;-97.880;2023-11-21T04:35:16;0.75;;;0.70;;
38879;SDS011;25887;30.194;-97.880;2023-11-21T04:37:42;3.00;;;0.73;;
38879;SDS011;25887;30.194;-97.880;2023-11-21T04:40:08;0.85;;;0.73;;
38879;SDS011;25887;30.194;-97.880;2023-11-21T04:42:35;1.35;;;0.80;;
38879;SDS011;25887;30.194;-97.880;2023-11-21T04:45:03;0.75;;;0.60;;
38879;SDS011;25887;30.194;-97.880;2023-11-21T04:47:36;0.60;;;0.60;;
38879;SDS011;25887;30.194;-97.880;2023-11-21T04:50:03;0.93;;;0.60;;
38879;SDS011;25887;30.194;-97.880;2023-11-21T04:52:31;0.70;;;0.50;;
38879;SDS011;25887;30.194;-97.880;2023-11-21T04:54:58;0.88;;;0.40;;
38879;SDS011;25887;30.194;-97.880;2023-11-21T04:57:26;0.55;;;0.55;;
38879;SDS011;25887;30.194;-97.880;2023-11-21T04:59:53;0.70;;;0.70;;
38879;SDS011;25887;30.194;-97.880;2023-11-21T05:02:20;1.17;;;0.43;;
38879;SDS011;25887;30.194;-97.880;2023-11-21T05:04:47;6.38;;;0.65;;
38879;SDS011;25887;30.194;-97.880;2023-11-21T05:07:14;0.80;;;0.40;;
38879;SDS011;25887;30.194;-97.880;2023-11-21T05:09:43;0.50;;;0.40;;
38879;SDS011;25887;30.194;-97.880;2023-11-21T05:12:13;0.93;;;0.38;;
38879;SDS011;25887;30.194;-97.880;2023-11-21T05:14:41;0.35;;;0.15;;
38879;SDS011;25887;30.194;-97.880;2023-11-21T05:17:19;0.95;;;0.43;;
38879;SDS011;25887;30.194;-97.880;2023-11-21T05:19:45;0.40;;;0.38;;
38879;SDS011;25887;30.194;-97.880;2023-11-21T05:22:13;0.55;;;0.38;;
38879;SDS011;25887;30.194;-97.880;2023-11-21T05:24:40;2.03;;;0.50;;
38879;SDS011;25887;30.194;-97.880;2023-11-21T05:27:06;1.85;;;0.38;;
38879;SDS011;25887;30.194;-97.880;2023-11-21T05:29:32;0.63;;;0.47;;
38879;SDS011;25887;30.194;-97.880;2023-11-21T05:31:59;2.83;;;0.57;;
38879;SDS011;25887;30.194;-97.880;2023-11-21T05:34:25;0.85;;;0.50;;
38879;SDS011;25887;30.194;-97.880;2023-11-21T05:36:52;1.35;;;0.55;;
38879;SDS011;25887;30.194;-97.880;2023-11-21T05:39:18;1.25;;;0.55;;
38879;SDS011;25887;30.194;-97.880;2023-11-21T05:41:46;0.45;;;0.40;;
38879;SDS011;25887;30.194;-97.880;2023-11-21T05:44:12;0.50;;;0.40;;
38879;SDS011;25887;30.194;-97.880;2023-11-21T05:46:39;1.25;;;0.68;;
38879;SDS011;25887;30.194;-97.880;2023-11-21T05:49:08;1.05;;;0.60;;
38879;SDS011;25887;30.194;-97.880;2023-11-21T05:51:37;1.15;;;0.60;;
38879;SDS011;25887;30.194;-97.880;2023-11-21T05:54:04;0.80;;;0.60;;
38879;SDS011;25887;30.194;-97.880;2023-11-21T05:56:30;1.77;;;0.70;;
38879;SDS011;25887;30.194;-97.880;2023-11-21T05:58:56;0.47;;;0.47;;
38879;SDS011;25887;30.194;-97.880;2023-11-21T06:01:41;4.03;;;0.60;;
38879;SDS011;25887;30.194;-97.880;2023-11-21T06:04:07;1.08;;;0.80;;
38879;SDS011;25887;30.194;-97.880;2023-11-21T06:06:35;2.10;;;0.60;;
38879;SDS011;25887;30.194;-97.880;2023-11-21T06:09:01;0.60;;;0.50;;
38879;SDS011;25887;30.194;-97.880;2023-11-21T06:11:28;1.42;;;0.77;;
38879;SDS011;25887;30.194;-97.880;2023-11-21T06:13:54;1.35;;;0.65;;
38879;SDS011;25887;30.194;-97.880;2023-11-21T06:16:20;0.98;;;0.57;;
38879;SDS011;25887;30.194;-97.880;2023-11-21T06:18:46;1.05;;;0.43;;
38879;SDS011;25887;30.194;-97.880;2023-11-21T06:21:13;2.67;;;0.60;;
38879;SDS011;25887;30.194;-97.880;2023-11-21T06:23:40;0.50;;;0.50;;
38879;SDS011;25887;30.194;-97.880;2023-11-21T06:26:07;0.50;;;0.43;;
38879;SDS011;25887;30.194;-97.880;2023-11-21T06:28:34;0.57;;;0.50;;
38879;SDS011;25887;30.194;-97.880;2023-11-21T06:31:03;1.08;;;0.75;;
38879;SDS011;25887;30.194;-97.880;2023-11-21T06:33:31;0.55;;;0.40;;
38879;SDS011;25887;30.194;-97.880;2023-11-21T06:35:57;2.42;;;0.40;;
38879;SDS011;25887;30.194;-97.880;2023-11-21T06:38:24;0.82;;;0.70;;
38879;SDS011;25887;30.194;-97.880;2023-11-21T06:40:53;0.95;;;0.60;;
38879;SDS011;25887;30.194;-97.880;2023-11-21T06:43:27;2.70;;;0.70;;
38879;SDS011;25887;30.194;-97.880;2023-11-21T06:45:53;0.47;;;0.30;;
38879;SDS011;25887;30.194;-97.880;2023-11-21T06:48:19;0.75;;;0.40;;
38879;SDS011;25887;30.194;-97.880;2023-11-21T06:50:45;1.02;;;0.40;;
38879;SDS011;25887;30.194;-97.880;2023-11-21T06:53:12;1.13;;;0.70;;
38879;SDS011;25887;30.194;-97.880;2023-11-21T06:55:38;0.80;;;0.77;;
38879;SDS011;25887;30.194;-97.880;2023-11-21T06:58:05;0.55;;;0.55;;
38879;SDS011;25887;30.194;-97.880;2023-11-21T07:00:31;0.65;;;0.52;;
38879;SDS011;25887;30.194;-97.880;2023-11-21T07:02:58;2.30;;;1.00;;
38879;SDS011;25887;30.194;-97.880;2023-11-21T07:05:24;2.20;;;0.65;;
38879;SDS011;25887;30.194;-97.880;2023-11-21T07:07:50;1.25;;;0.80;;
38879;SDS011;25887;30.194;-97.880;2023-11-21T07:10:35;1.48;;;0.85;;
38879;SDS011;25887;30.194;-97.880;2023-11-21T07:13:02;1.25;;;0.68;;
38879;SDS011;25887;30.194;-97.880;2023-11-21T07:15:28;1.20;;;0.70;;
38879;SDS011;25887;30.194;-97.880;2023-11-21T07:17:54;1.08;;;0.57;;
38879;SDS011;25887;30.194;-97.880;2023-11-21T07:20:20;0.77;;;0.60;;
38879;SDS011;25887;30.194;-97.880;2023-11-21T07:22:46;0.45;;;0.28;;
38879;SDS011;25887;30.194;-97.880;2023-11-21T07:25:13;1.13;;;0.55;;
38879;SDS011;25887;30.194;-97.880;2023-11-21T07:27:39;1.02;;;0.65;;
38879;SDS011;25887;30.194;-97.880;2023-11-21T07:30:05;0.65;;;0.45;;
38879;SDS011;25887;30.194;-97.880;2023-11-21T07:32:33;1.13;;;0.90;;
38879;SDS011;25887;30.194;-97.880;2023-11-21T07:34:59;1.08;;;0.70;;
38879;SDS011;25887;30.194;-97.880;2023-11-21T07:37:26;1.13;;;0.50;;
38879;SDS011;25887;30.194;-97.880;2023-11-21T07:39:56;0.93;;;0.55;;
38879;SDS011;25887;30.194;-97.880;2023-11-21T07:42:23;1.10;;;0.65;;
38879;SDS011;25887;30.194;-97.880;2023-11-21T07:44:51;1.10;;;0.70;;
38879;SDS011;25887;30.194;-97.880;2023-11-21T07:47:18;2.83;;;0.60;;
38879;SDS011;25887;30.194;-97.880;2023-11-21T07:49:44;6.22;;;0.60;;
38879;SDS011;25887;30.194;-97.880;2023-11-21T07:52:12;2.63;;;0.70;;
38879;SDS011;25887;30.194;-97.880;2023-11-21T07:54:38;2.08;;;0.80;;
38879;SDS011;25887;30.194;-97.880;2023-11-21T07:57:04;0.63;;;0.47;;
38879;SDS011;25887;30.194;-97.880;2023-11-21T07:59:30;1.33;;;0.77;;
38879;SDS011;25887;30.194;-97.880;2023-11-21T08:01:57;0.77;;;0.68;;
38879;SDS011;25887;30.194;-97.880;2023-11-21T08:04:23;1.08;;;0.70;;
38879;SDS011;25887;30.194;-97.880;2023-11-21T08:06:49;3.58;;;0.75;;
38879;SDS011;25887;30.194;-97.880;2023-11-21T08:09:16;0.45;;;0.43;;
38879;SDS011;25887;30.194;-97.880;2023-11-21T08:11:42;0.47;;;0.43;;
38879;SDS011;25887;30.194;-97.880;2023-11-21T08:14:09;1.30;;;0.70;;
38879;SDS011;25887;30.194;-97.880;2023-11-21T08:16:35;3.15;;;0.55;;
38879;SDS011;25887;30.194;-97.880;2023-11-21T08:19:01;0.90;;;0.50;;
38879;SDS011;25887;30.194;-97.880;2023-11-21T08:21:28;0.60;;;0.40;;
38879;SDS011;25887;30.194;-97.880;2023-11-21T08:23:54;1.98;;;0.50;;
38879;SDS011;25887;30.194;-97.880;2023-11-21T08:26:21;1.10;;;0.57;;
38879;SDS011;25887;30.194;-97.880;2023-11-21T08:28:48;1.15;;;0.68;;
38879;SDS011;25887;30.194;-97.880;2023-11-21T08:31:14;0.80;;;0.70;;
38879;SDS011;25887;30.194;-97.880;2023-11-21T08:33:41;1.70;;;0.70;;
38879;SDS011;25887;30.194;-97.880;2023-11-21T08:36:10;0.68;;;0.55;;
38879;SDS011;25887;30.194;-97.880;2023-11-21T08:38:37;1.02;;;0.77;;
38879;SDS011;25887;30.194;-97.880;2023-11-21T08:41:06;2.22;;;0.80;;
38879;SDS011;25887;30.194;-97.880;2023-11-21T08:43:36;0.47;;;0.47;;
38879;SDS011;25887;30.194;-97.880;2023-11-21T08:46:05;1.60;;;0.70;;
38879;SDS011;25887;30.194;-97.880;2023-11-21T08:48:35;1.95;;;0.88;;
38879;SDS011;25887;30.194;-97.880;2023-11-21T08:51:02;1.67;;;0.88;;
38879;SDS011;25887;30.194;-97.880;2023-11-21T08:53:29;1.85;;;0.75;;
38879;SDS011;25887;30.194;-97.880;2023-11-21T08:55:56;3.17;;;0.60;;
38879;SDS011;25887;30.194;-97.880;2023-11-21T08:58:23;2.92;;;0.73;;
38879;SDS011;25887;30.194;-97.880;2023-11-21T09:00:50;0.73;;;0.65;;
38879;SDS011;25887;30.194;-97.880;2023-11-21T09:03:17;3.00;;;0.57;;
38879;SDS011;25887;30.194;-97.880;2023-11-21T09:05:43;0.73;;;0.60;;
38879;SDS011;25887;30.194;-97.880;2023-11-21T09:08:09;1.15;;;0.82;;
38879;SDS011;25887;30.194;-97.880;2023-11-21T09:10:36;0.73;;;0.60;;
38879;SDS011;25887;30.194;-97.880;2023-11-21T09:13:02;0.38;;;0.38;;
38879;SDS011;25887;30.194;-97.880;2023-11-21T09:15:28;1.02;;;0.63;;
38879;SDS011;25887;30.194;-97.880;2023-11-21T09:17:55;1.42;;;0.63;;
38879;SDS011;25887;30.194;-97.880;2023-11-21T09:20:21;0.57;;;0.57;;
38879;SDS011;25887;30.194;-97.880;2023-11-21T09:22:49;1.00;;;0.80;;
38879;SDS011;25887;30.194;-97.880;2023-11-21T09:25:15;2.55;;;0.60;;
38879;SDS011;25887;30.194;-97.880;2023-11-21T09:27:42;2.25;;;0.57;;
38879;SDS011;25887;30.194;-97.880;2023-11-21T09:30:15;1.08;;;0.55;;
38879;SDS011;25887;30.194;-97.880;2023-11-21T09:32:41;1.10;;;0.80;;
38879;SDS011;25887;30.194;-97.880;2023-11-21T09:35:10;1.35;;;0.55;;
38879;SDS011;25887;30.194;-97.880;2023-11-21T09:37:39;1.17;;;0.52;;
38879;SDS011;25887;30.194;-97.880;2023-11-21T09:40:06;0.75;;;0.55;;
38879;SDS011;25887;30.194;-97.880;2023-11-21T09:42:49;0.82;;;0.65;;
38879;SDS011;25887;30.194;-97.880;2023-11-21T09:45:26;1.25;;;0.85;;
38879;SDS011;25887;30.194;-97.880;2023-11-21T09:47:54;4.38;;;0.70;;
38879;SDS011;25887;30.194;-97.880;2023-11-21T09:50:21;0.82;;;0.50;;
38879;SDS011;25887;30.194;-97.880;2023-11-21T09:52:57;0.77;;;0.63;;
38879;SDS011;25887;30.194;-97.880;2023-11-21T09:55:43;3.03;;;0.82;;
38879;SDS011;25887;30.194;-97.880;2023-11-21T09:58:11;1.42;;;0.85;;
38879;SDS011;25887;30.194;-97.880;2023-11-21T10:00:45;3.13;;;0.75;;
38879;SDS011;25887;30.194;-97.880;2023-11-21T10:03:13;0.75;;;0.50;;
38879;SDS011;25887;30.194;-97.880;2023-11-21T10:05:43;0.40;;;0.40;;
38879;SDS011;25887;30.194;-97.880;2023-11-21T10:08:13;2.03;;;0.70;;
38879;SDS011;25887;30.194;-97.880;2023-11-21T10:10:43;0.75;;;0.47;;
38879;SDS011;25887;30.194;-97.880;2023-11-21T10:13:13;1.70;;;0.47;;
38879;SDS011;25887;30.194;-97.880;2023-11-21T10:15:43;0.38;;;0.20;;
38879;SDS011;25887;30.194;-97.880;2023-11-21T10:18:14;1.17;;;0.30;;
38879;SDS011;25887;30.194;-97.880;2023-11-21T10:20:41;0.43;;;0.43;;
38879;SDS011;25887;30.194;-97.880;2023-11-21T10:23:08;0.90;;;0.40;;
38879;SDS011;25887;30.194;-97.880;2023-11-21T10:25:38;0.65;;;0.43;;
38879;SDS011;25887;30.194;-97.880;2023-11-21T10:28:04;0.80;;;0.50;;
38879;SDS011;25887;30.194;-97.880;2023-11-21T10:30:32;0.45;;;0.30;;
38879;SDS011;25887;30.194;-97.880;2023-11-21T10:33:02;0.98;;;0.52;;
38879;SDS011;25887;30.194;-97.880;2023-11-21T10:38:26;0.35;;;0.35;;
38879;SDS011;25887;30.194;-97.880;2023-11-21T10:40:53;0.40;;;0.30;;
38879;SDS011;25887;30.194;-97.880;2023-11-21T10:43:21;0.65;;;0.40;;
38879;SDS011;25887;30.194;-97.880;2023-11-21T10:45:50;0.50;;;0.38;;
38879;SDS011;25887;30.194;-97.880;2023-11-21T10:48:17;2.50;;;0.40;;
38879;SDS011;25887;30.194;-97.880;2023-11-21T10:50:46;0.75;;;0.38;;
38879;SDS011;25887;30.194;-97.880;2023-11-21T10:53:13;0.40;;;0.30;;
38879;SDS011;25887;30.194;-97.880;2023-11-21T10:55:39;1.38;;;0.30;;
38879;SDS011;25887;30.194;-97.880;2023-11-21T10:58:06;0.70;;;0.30;;
38879;SDS011;25887;30.194;-97.880;2023-11-21T11:00:33;1.08;;;0.30;;
38879;SDS011;25887;30.194;-97.880;2023-11-21T11:02:59;0.40;;;0.38;;
38879;SDS011;25887;30.194;-97.880;2023-11-21T11:05:27;1.17;;;0.38;;
38879;SDS011;25887;30.194;-97.880;2023-11-21T11:08:08;0.20;;;0.20;;
38879;SDS011;25887;30.194;-97.880;2023-11-21T11:10:37;0.40;;;0.08;;
38879;SDS011;25887;30.194;-97.880;2023-11-21T11:13:04;0.40;;;0.30;;
38879;SDS011;25887;30.194;-97.880;2023-11-21T11:15:32;0.40;;;0.30;;
38879;SDS011;25887;30.194;-97.880;2023-11-21T11:17:58;0.20;;;0.20;;
38879;SDS011;25887;30.194;-97.880;2023-11-21T11:20:26;0.47;;;0.30;;
38879;SDS011;25887;30.194;-97.880;2023-11-21T11:25:36;0.25;;;0.10;;
38879;SDS011;25887;30.194;-97.880;2023-11-21T11:28:20;0.17;;;0.13;;
38879;SDS011;25887;30.194;-97.880;2023-11-21T11:31:04;0.20;;;0.15;;
38879;SDS011;25887;30.194;-97.880;2023-11-21T11:38:55;0.15;;;0.15;;
38879;SDS011;25887;30.194;-97.880;2023-11-21T11:41:30;2.47;;;0.28;;
38879;SDS011;25887;30.194;-97.880;2023-11-21T11:44:09;0.08;;;0.08;;
38879;SDS011;25887;30.194;-97.880;2023-11-21T11:47:15;0.32;;;0.15;;
38879;SDS011;25887;30.194;-97.880;2023-11-21T11:50:01;2.00;;;0.20;;
38879;SDS011;25887;30.194;-97.880;2023-11-21T11:52:34;0.32;;;0.10;;
38879;SDS011;25887;30.194;-97.880;2023-11-21T11:55:05;0.20;;;0.20;;
38879;SDS011;25887;30.194;-97.880;2023-11-21T11:57:35;0.10;;;0.10;;
38879;SDS011;25887;30.194;-97.880;2023-11-21T12:02:47;0.03;;;0.03;;
38879;SDS011;25887;30.194;-97.880;2023-11-21T12:05:18;0.10;;;0.10;;
38879;SDS011;25887;30.194;-97.880;2023-11-21T12:07:50;0.20;;;0.20;;
38879;SDS011;25887;30.194;-97.880;2023-11-21T12:10:21;0.10;;;0.10;;
38879;SDS011;25887;30.194;-97.880;2023-11-21T12:12:52;0.10;;;0.10;;
38879;SDS011;25887;30.194;-97.880;2023-11-21T12:15:21;0.00;;;0.00;;
38879;SDS011;25887;30.194;-97.880;2023-11-21T12:17:48;0.00;;;0.00;;
38879;SDS011;25887;30.194;-97.880;2023-11-21T12:20:15;0.00;;;0.00;;
38879;SDS011;25887;30.194;-97.880;2023-11-21T12:22:45;0.10;;;0.08;;
38879;SDS011;25887;30.194;-97.880;2023-11-21T12:27:47;0.00;;;0.00;;
38879;SDS011;25887;30.194;-97.880;2023-11-21T12:30:16;3.40;;;0.10;;
38879;SDS011;25887;30.194;-97.880;2023-11-21T12:32:44;0.00;;;0.00;;
38879;SDS011;25887;30.194;-97.880;2023-11-21T12:35:13;0.00;;;0.00;;
38879;SDS011;25887;30.194;-97.880;2023-11-21T12:37:39;0.00;;;0.00;;
38879;SDS011;25887;30.194;-97.880;2023-11-21T12:40:09;0.10;;;0.10;;
38879;SDS011;25887;30.194;-97.880;2023-11-21T12:42:47;0.00;;;0.00;;
38879;SDS011;25887;30.194;-97.880;2023-11-21T12:47:48;0.43;;;0.10;;
38879;SDS011;25887;30.194;-97.880;2023-11-21T12:50:19;0.03;;;0.03;;
38879;SDS011;25887;30.194;-97.880;2023-11-21T12:52:54;0.10;;;0.10;;
38879;SDS011;25887;30.194;-97.880;2023-11-21T12:55:23;0.05;;;0.00;;
38879;SDS011;25887;30.194;-97.880;2023-11-21T12:57:54;0.00;;;0.00;;
38879;SDS011;25887;30.194;-97.880;2023-11-21T13:00:28;0.20;;;0.13;;
38879;SDS011;25887;30.194;-97.880;2023-11-21T13:03:05;2.35;;;0.10;;
38879;SDS011;25887;30.194;-97.880;2023-11-21T13:05:33;0.45;;;0.15;;
38879;SDS011;25887;30.194;-97.880;2023-11-21T13:08:01;0.20;;;0.03;;
38879;SDS011;25887;30.194;-97.880;2023-11-21T13:10:29;0.08;;;0.08;;
38879;SDS011;25887;30.194;-97.880;2023-11-21T13:13:00;0.80;;;0.28;;
38879;SDS011;25887;30.194;-97.880;2023-11-21T13:15:30;0.20;;;0.10;;
38879;SDS011;25887;30.194;-97.880;2023-11-21T13:17:58;0.08;;;0.08;;
38879;SDS011;25887;30.194;-97.880;2023-11-21T13:20:24;0.00;;;0.00;;
38879;SDS011;25887;30.194;-97.880;2023-11-21T13:22:52;0.08;;;0.08;;
38879;SDS011;25887;30.194;-97.880;2023-11-21T13:25:29;0.10;;;0.10;;
38879;SDS011;25887;30.194;-97.880;2023-11-21T13:27:58;0.10;;;0.10;;
38879;SDS011;25887;30.194;-97.880;2023-11-21T13:30:26;0.00;;;0.00;;
38879;SDS011;25887;30.194;-97.880;2023-11-21T13:32:54;0.00;;;0.00;;
38879;SDS011;25887;30.194;-97.880;2023-11-21T13:35:30;0.10;;;0.10;;
38879;SDS011;25887;30.194;-97.880;2023-11-21T13:40:34;0.05;;;0.00;;
38879;SDS011;25887;30.194;-97.880;2023-11-21T13:43:15;1.10;;;0.20;;
38879;SDS011;25887;30.194;-97.880;2023-11-21T13:45:48;0.47;;;0.10;;
38879;SDS011;25887;30.194;-97.880;2023-11-21T13:48:26;1.25;;;0.20;;
38879;SDS011;25887;30.194;-97.880;2023-11-21T13:51:07;0.00;;;0.00;;
38879;SDS011;25887;30.194;-97.880;2023-11-21T13:53:45;0.00;;;0.00;;
38879;SDS011;25887;30.194;-97.880;2023-11-21T13:56:17;0.13;;;0.13;;
38879;SDS011;25887;30.194;-97.880;2023-11-21T13:58:49;1.20;;;0.15;;
38879;SDS011;25887;30.194;-97.880;2023-11-21T14:01:20;0.00;;;0.00;;
38879;SDS011;25887;30.194;-97.880;2023-11-21T14:04:00;0.00;;;0.00;;
38879;SDS011;25887;30.194;-97.880;2023-11-21T14:06:38;0.00;;;0.00;;
38879;SDS011;25887;30.194;-97.880;2023-11-21T14:09:21;0.30;;;0.10;;
38879;SDS011;25887;30.194;-97.880;2023-11-21T14:11:52;0.20;;;0.10;;
38879;SDS011;25887;30.194;-97.880;2023-11-21T14:14:21;0.00;;;0.00;;
38879;SDS011;25887;30.194;-97.880;2023-11-21T14:16:49;0.00;;;0.00;;
38879;SDS011;25887;30.194;-97.880;2023-11-21T14:19:16;0.00;;;0.00;;
38879;SDS011;25887;30.194;-97.880;2023-11-21T14:21:43;1.05;;;0.20;;
38879;SDS011;25887;30.194;-97.880;2023-11-21T14:24:13;7.38;;;0.20;;
38879;SDS011;25887;30.194;-97.880;2023-11-21T14:26:43;0.63;;;0.10;;
38879;SDS011;25887;30.194;-97.880;2023-11-21T14:29:20;0.00;;;0.00;;
38879;SDS011;25887;30.194;-97.880;2023-11-21T14:31:47;0.00;;;0.00;;
38879;SDS011;25887;30.194;-97.880;2023-11-21T14:34:15;0.05;;;0.03;;
38879;SDS011;25887;30.194;-97.880;2023-11-21T14:36:42;0.10;;;0.00;;
38879;SDS011;25887;30.194;-97.880;2023-11-21T14:39:09;0.08;;;0.08;;
38879;SDS011;25887;30.194;-97.880;2023-11-21T14:41:49;0.00;;;0.00;;
38879;SDS011;25887;30.194;-97.880;2023-11-21T14:44:16;0.03;;;0.00;;
38879;SDS011;25887;30.194;-97.880;2023-11-21T14:46:42;0.10;;;0.08;;
38879;SDS011;25887;30.194;-97.880;2023-11-21T14:49:12;0.17;;;0.17;;
38879;SDS011;25887;30.194;-97.880;2023-11-21T14:51:52;0.45;;;0.28;;
38879;SDS011;25887;30.194;-97.880;2023-11-21T14:54:25;0.30;;;0.10;;
38879;SDS011;25887;30.194;-97.880;2023-11-21T14:57:20;0.00;;;0.00;;